CLT TRACON Summary / KCLT TAF
CLT TRACON Summary:
High pressure will dominate the region, providing VFR conditions under mostly clear skies. Surface winds will north to northeast at 5-8kts. Flight Hazards in the TRACON airspace: None expected.

Updated: 5/22/2015 12:30 PM
CLT Terminal Aerodrome Forecast:

FTUS42 KGSP 221728
TAFCLT
TAF
KCLT 221728Z 2218/2318 03007KT P6SM SKC
     FM230100 00000KT P6SM SKC
     FM231400 06006KT P6SM SKC
     FM231700 10005KT P6SM FEW250=
CLT TRACON Area Remark:
NONE.
Convective Gate Forecast / Collaborative Convective Forecast Product / Vertical Wind Profile
Convective Gate Forecast
SIGMETS/ Southeast Radar & Satellite Loops (click on image to enlarge)

Southeast Radar Loop

 



USA.gov is the U.S. government's official web portal to all federal, state and local government web resources and services.